sensor_id;sensor_type;location;lat;lon;timestamp;P1;durP1;ratioP1;P2;durP2;ratioP2
25535;SDS011;13431;51.352;6.412;2022-09-09T00:04:35;1.15;;;1.00;;
25535;SDS011;13431;51.352;6.412;2022-09-09T00:07:07;1.30;;;1.20;;
25535;SDS011;13431;51.352;6.412;2022-09-09T00:10:13;1.20;;;1.20;;
25535;SDS011;13431;51.352;6.412;2022-09-09T00:15:42;2.47;;;1.02;;
25535;SDS011;13431;51.352;6.412;2022-09-09T00:22:07;1.30;;;1.00;;
25535;SDS011;13431;51.352;6.412;2022-09-09T00:24:28;1.10;;;1.00;;
25535;SDS011;13431;51.352;6.412;2022-09-09T00:27:07;1.38;;;1.10;;
25535;SDS011;13431;51.352;6.412;2022-09-09T00:29:53;2.92;;;1.80;;
25535;SDS011;13431;51.352;6.412;2022-09-09T00:32:27;2.60;;;1.23;;
25535;SDS011;13431;51.352;6.412;2022-09-09T00:35:02;1.40;;;1.30;;
25535;SDS011;13431;51.352;6.412;2022-09-09T00:37:37;1.83;;;1.30;;
25535;SDS011;13431;51.352;6.412;2022-09-09T00:40:11;1.40;;;1.30;;
25535;SDS011;13431;51.352;6.412;2022-09-09T00:43:12;2.15;;;1.17;;
25535;SDS011;13431;51.352;6.412;2022-09-09T00:48:35;2.17;;;1.20;;
25535;SDS011;13431;51.352;6.412;2022-09-09T00:51:20;3.15;;;1.83;;
25535;SDS011;13431;51.352;6.412;2022-09-09T00:57:14;2.55;;;1.30;;
25535;SDS011;13431;51.352;6.412;2022-09-09T01:02:45;3.33;;;1.40;;
25535;SDS011;13431;51.352;6.412;2022-09-09T01:05:26;3.70;;;1.60;;
25535;SDS011;13431;51.352;6.412;2022-09-09T01:11:07;3.70;;;2.20;;
25535;SDS011;13431;51.352;6.412;2022-09-09T01:13:44;3.65;;;1.50;;
25535;SDS011;13431;51.352;6.412;2022-09-09T01:16:16;1.60;;;1.38;;
25535;SDS011;13431;51.352;6.412;2022-09-09T01:18:45;3.35;;;1.95;;
25535;SDS011;13431;51.352;6.412;2022-09-09T01:27:25;3.20;;;2.90;;
25535;SDS011;13431;51.352;6.412;2022-09-09T01:29:52;3.67;;;3.35;;
25535;SDS011;13431;51.352;6.412;2022-09-09T01:37:50;3.95;;;3.47;;
25535;SDS011;13431;51.352;6.412;2022-09-09T01:40:18;4.15;;;3.75;;
25535;SDS011;13431;51.352;6.412;2022-09-09T01:42:47;4.78;;;4.28;;
25535;SDS011;13431;51.352;6.412;2022-09-09T01:45:15;5.90;;;4.63;;
25535;SDS011;13431;51.352;6.412;2022-09-09T01:47:43;6.45;;;5.10;;
25535;SDS011;13431;51.352;6.412;2022-09-09T01:50:19;5.78;;;5.18;;
25535;SDS011;13431;51.352;6.412;2022-09-09T01:52:50;6.00;;;5.45;;
25535;SDS011;13431;51.352;6.412;2022-09-09T01:55:29;8.82;;;7.00;;
25535;SDS011;13431;51.352;6.412;2022-09-09T02:01:39;6.30;;;5.80;;
25535;SDS011;13431;51.352;6.412;2022-09-09T02:03:57;6.72;;;6.03;;
25535;SDS011;13431;51.352;6.412;2022-09-09T02:09:07;7.35;;;6.57;;
25535;SDS011;13431;51.352;6.412;2022-09-09T02:11:40;7.05;;;6.35;;
25535;SDS011;13431;51.352;6.412;2022-09-09T02:14:23;6.28;;;5.68;;
25535;SDS011;13431;51.352;6.412;2022-09-09T02:16:56;8.15;;;5.13;;
25535;SDS011;13431;51.352;6.412;2022-09-09T02:19:51;5.68;;;5.10;;
25535;SDS011;13431;51.352;6.412;2022-09-09T02:22:33;4.97;;;4.55;;
25535;SDS011;13431;51.352;6.412;2022-09-09T02:25:03;5.40;;;4.80;;
25535;SDS011;13431;51.352;6.412;2022-09-09T02:27:33;5.10;;;4.20;;
25535;SDS011;13431;51.352;6.412;2022-09-09T02:30:02;5.38;;;4.53;;
25535;SDS011;13431;51.352;6.412;2022-09-09T02:32:36;7.93;;;4.00;;
25535;SDS011;13431;51.352;6.412;2022-09-09T02:35:09;8.48;;;4.22;;
25535;SDS011;13431;51.352;6.412;2022-09-09T02:37:44;6.38;;;3.63;;
25535;SDS011;13431;51.352;6.412;2022-09-09T02:40:17;3.80;;;3.45;;
25535;SDS011;13431;51.352;6.412;2022-09-09T02:42:49;6.03;;;3.58;;
25535;SDS011;13431;51.352;6.412;2022-09-09T02:45:19;4.65;;;3.13;;
25535;SDS011;13431;51.352;6.412;2022-09-09T02:50:39;4.68;;;3.25;;
25535;SDS011;13431;51.352;6.412;2022-09-09T02:53:17;7.72;;;3.25;;
25535;SDS011;13431;51.352;6.412;2022-09-09T02:55:55;4.32;;;2.95;;
25535;SDS011;13431;51.352;6.412;2022-09-09T02:58:34;4.50;;;2.75;;
25535;SDS011;13431;51.352;6.412;2022-09-09T03:01:05;5.97;;;3.10;;
25535;SDS011;13431;51.352;6.412;2022-09-09T03:03:33;5.68;;;2.75;;
25535;SDS011;13431;51.352;6.412;2022-09-09T03:06:04;3.92;;;2.65;;
25535;SDS011;13431;51.352;6.412;2022-09-09T03:08:32;6.63;;;2.70;;
25535;SDS011;13431;51.352;6.412;2022-09-09T03:11:00;3.50;;;2.60;;
25535;SDS011;13431;51.352;6.412;2022-09-09T03:13:31;6.03;;;2.50;;
25535;SDS011;13431;51.352;6.412;2022-09-09T03:15:58;7.32;;;2.50;;
25535;SDS011;13431;51.352;6.412;2022-09-09T03:18:29;4.93;;;2.40;;
25535;SDS011;13431;51.352;6.412;2022-09-09T03:20:57;7.35;;;3.10;;
25535;SDS011;13431;51.352;6.412;2022-09-09T03:23:26;4.50;;;2.38;;
25535;SDS011;13431;51.352;6.412;2022-09-09T03:25:53;6.88;;;3.30;;
25535;SDS011;13431;51.352;6.412;2022-09-09T03:28:30;5.60;;;2.72;;
25535;SDS011;13431;51.352;6.412;2022-09-09T03:31:00;3.67;;;2.40;;
25535;SDS011;13431;51.352;6.412;2022-09-09T03:33:33;5.05;;;2.90;;
25535;SDS011;13431;51.352;6.412;2022-09-09T03:36:04;5.05;;;3.10;;
25535;SDS011;13431;51.352;6.412;2022-09-09T03:38:33;4.38;;;2.85;;
25535;SDS011;13431;51.352;6.412;2022-09-09T03:41:01;3.13;;;2.70;;
25535;SDS011;13431;51.352;6.412;2022-09-09T03:43:29;5.63;;;3.55;;
25535;SDS011;13431;51.352;6.412;2022-09-09T03:45:57;5.68;;;3.72;;
25535;SDS011;13431;51.352;6.412;2022-09-09T03:48:26;6.70;;;3.58;;
25535;SDS011;13431;51.352;6.412;2022-09-09T03:50:55;6.07;;;3.53;;
25535;SDS011;13431;51.352;6.412;2022-09-09T03:53:24;4.45;;;2.97;;
25535;SDS011;13431;51.352;6.412;2022-09-09T03:55:53;4.15;;;3.00;;
25535;SDS011;13431;51.352;6.412;2022-09-09T03:58:24;7.93;;;3.30;;
25535;SDS011;13431;51.352;6.412;2022-09-09T04:00:58;5.07;;;2.92;;
25535;SDS011;13431;51.352;6.412;2022-09-09T04:03:27;6.15;;;3.13;;
25535;SDS011;13431;51.352;6.412;2022-09-09T04:05:56;11.05;;;5.18;;
25535;SDS011;13431;51.352;6.412;2022-09-09T04:08:28;5.55;;;3.45;;
25535;SDS011;13431;51.352;6.412;2022-09-09T04:10:59;5.32;;;3.13;;
25535;SDS011;13431;51.352;6.412;2022-09-09T04:13:29;5.45;;;3.25;;
25535;SDS011;13431;51.352;6.412;2022-09-09T04:15:58;6.10;;;3.78;;
25535;SDS011;13431;51.352;6.412;2022-09-09T04:18:27;6.95;;;3.40;;
25535;SDS011;13431;51.352;6.412;2022-09-09T04:20:58;10.57;;;4.25;;
25535;SDS011;13431;51.352;6.412;2022-09-09T04:23:27;8.13;;;4.07;;
25535;SDS011;13431;51.352;6.412;2022-09-09T04:25:57;5.32;;;3.53;;
25535;SDS011;13431;51.352;6.412;2022-09-09T04:28:27;9.88;;;5.32;;
25535;SDS011;13431;51.352;6.412;2022-09-09T04:31:14;6.85;;;4.03;;
25535;SDS011;13431;51.352;6.412;2022-09-09T04:33:55;5.97;;;4.25;;
25535;SDS011;13431;51.352;6.412;2022-09-09T04:36:24;5.70;;;4.57;;
25535;SDS011;13431;51.352;6.412;2022-09-09T04:38:57;9.68;;;4.43;;
25535;SDS011;13431;51.352;6.412;2022-09-09T04:41:24;6.65;;;4.63;;
25535;SDS011;13431;51.352;6.412;2022-09-09T04:43:53;5.95;;;3.88;;
25535;SDS011;13431;51.352;6.412;2022-09-09T04:46:21;5.72;;;3.90;;
25535;SDS011;13431;51.352;6.412;2022-09-09T04:48:50;7.75;;;3.58;;
25535;SDS011;13431;51.352;6.412;2022-09-09T04:51:19;8.55;;;3.35;;
25535;SDS011;13431;51.352;6.412;2022-09-09T04:53:48;13.38;;;4.30;;
25535;SDS011;13431;51.352;6.412;2022-09-09T04:56:17;4.90;;;2.97;;
25535;SDS011;13431;51.352;6.412;2022-09-09T04:58:50;7.40;;;3.35;;
25535;SDS011;13431;51.352;6.412;2022-09-09T05:01:21;8.73;;;3.00;;
25535;SDS011;13431;51.352;6.412;2022-09-09T05:03:50;8.38;;;3.55;;
25535;SDS011;13431;51.352;6.412;2022-09-09T05:06:21;8.30;;;3.55;;
25535;SDS011;13431;51.352;6.412;2022-09-09T05:08:54;6.03;;;2.58;;
25535;SDS011;13431;51.352;6.412;2022-09-09T05:11:28;10.38;;;3.25;;
25535;SDS011;13431;51.352;6.412;2022-09-09T05:14:01;9.73;;;3.88;;
25535;SDS011;13431;51.352;6.412;2022-09-09T05:16:30;7.63;;;3.17;;
25535;SDS011;13431;51.352;6.412;2022-09-09T05:18:58;6.07;;;3.35;;
25535;SDS011;13431;51.352;6.412;2022-09-09T05:21:32;8.40;;;3.80;;
25535;SDS011;13431;51.352;6.412;2022-09-09T05:24:00;8.35;;;3.72;;
25535;SDS011;13431;51.352;6.412;2022-09-09T05:26:27;4.65;;;2.95;;
25535;SDS011;13431;51.352;6.412;2022-09-09T05:28:57;8.57;;;2.72;;
25535;SDS011;13431;51.352;6.412;2022-09-09T05:31:25;5.40;;;2.70;;
25535;SDS011;13431;51.352;6.412;2022-09-09T05:33:55;7.88;;;3.45;;
25535;SDS011;13431;51.352;6.412;2022-09-09T05:36:22;8.48;;;3.15;;
25535;SDS011;13431;51.352;6.412;2022-09-09T05:38:54;7.05;;;2.70;;
25535;SDS011;13431;51.352;6.412;2022-09-09T05:41:22;6.97;;;3.17;;
25535;SDS011;13431;51.352;6.412;2022-09-09T05:43:53;10.30;;;2.80;;
25535;SDS011;13431;51.352;6.412;2022-09-09T05:46:22;7.35;;;2.28;;
25535;SDS011;13431;51.352;6.412;2022-09-09T05:48:52;5.35;;;2.50;;
25535;SDS011;13431;51.352;6.412;2022-09-09T05:51:28;6.75;;;2.70;;
25535;SDS011;13431;51.352;6.412;2022-09-09T05:54:03;6.68;;;3.40;;
25535;SDS011;13431;51.352;6.412;2022-09-09T05:56:34;5.15;;;2.88;;
25535;SDS011;13431;51.352;6.412;2022-09-09T05:59:01;7.13;;;3.15;;
25535;SDS011;13431;51.352;6.412;2022-09-09T06:01:30;6.40;;;3.13;;
25535;SDS011;13431;51.352;6.412;2022-09-09T06:04:01;7.25;;;3.17;;
25535;SDS011;13431;51.352;6.412;2022-09-09T06:06:32;10.02;;;3.72;;
25535;SDS011;13431;51.352;6.412;2022-09-09T06:09:08;8.05;;;4.85;;
25535;SDS011;13431;51.352;6.412;2022-09-09T06:11:39;4.65;;;3.80;;
25535;SDS011;13431;51.352;6.412;2022-09-09T06:14:07;5.57;;;3.47;;
25535;SDS011;13431;51.352;6.412;2022-09-09T06:16:36;6.43;;;4.07;;
25535;SDS011;13431;51.352;6.412;2022-09-09T06:19:09;7.90;;;3.50;;
25535;SDS011;13431;51.352;6.412;2022-09-09T06:21:39;6.50;;;3.22;;
25535;SDS011;13431;51.352;6.412;2022-09-09T06:24:08;7.50;;;3.45;;
25535;SDS011;13431;51.352;6.412;2022-09-09T06:26:37;5.72;;;2.78;;
25535;SDS011;13431;51.352;6.412;2022-09-09T06:29:11;6.47;;;3.30;;
25535;SDS011;13431;51.352;6.412;2022-09-09T06:31:40;6.10;;;2.47;;
25535;SDS011;13431;51.352;6.412;2022-09-09T06:34:14;6.22;;;2.53;;
25535;SDS011;13431;51.352;6.412;2022-09-09T06:36:46;5.97;;;2.70;;
25535;SDS011;13431;51.352;6.412;2022-09-09T06:39:13;5.82;;;2.33;;
25535;SDS011;13431;51.352;6.412;2022-09-09T06:41:42;4.00;;;2.17;;
25535;SDS011;13431;51.352;6.412;2022-09-09T06:44:39;4.38;;;2.13;;
25535;SDS011;13431;51.352;6.412;2022-09-09T06:47:11;6.45;;;2.17;;
25535;SDS011;13431;51.352;6.412;2022-09-09T06:49:39;5.22;;;2.47;;
25535;SDS011;13431;51.352;6.412;2022-09-09T06:52:11;6.25;;;2.92;;
25535;SDS011;13431;51.352;6.412;2022-09-09T06:54:38;4.40;;;1.73;;
25535;SDS011;13431;51.352;6.412;2022-09-09T06:57:06;4.70;;;1.98;;
25535;SDS011;13431;51.352;6.412;2022-09-09T06:59:54;9.32;;;2.38;;
25535;SDS011;13431;51.352;6.412;2022-09-09T07:02:21;5.55;;;2.17;;
25535;SDS011;13431;51.352;6.412;2022-09-09T07:04:48;5.03;;;1.90;;
25535;SDS011;13431;51.352;6.412;2022-09-09T07:07:17;5.18;;;2.20;;
25535;SDS011;13431;51.352;6.412;2022-09-09T07:09:45;5.40;;;1.92;;
25535;SDS011;13431;51.352;6.412;2022-09-09T07:12:13;5.40;;;1.88;;
25535;SDS011;13431;51.352;6.412;2022-09-09T07:14:48;5.15;;;1.73;;
25535;SDS011;13431;51.352;6.412;2022-09-09T07:17:16;4.65;;;1.70;;
25535;SDS011;13431;51.352;6.412;2022-09-09T07:19:43;6.05;;;2.47;;
25535;SDS011;13431;51.352;6.412;2022-09-09T07:22:10;10.05;;;2.05;;
25535;SDS011;13431;51.352;6.412;2022-09-09T07:24:38;4.82;;;2.05;;
25535;SDS011;13431;51.352;6.412;2022-09-09T07:27:06;8.13;;;2.28;;
25535;SDS011;13431;51.352;6.412;2022-09-09T07:29:35;6.90;;;1.88;;
25535;SDS011;13431;51.352;6.412;2022-09-09T07:32:03;4.35;;;1.92;;
25535;SDS011;13431;51.352;6.412;2022-09-09T07:34:34;4.90;;;2.47;;
25535;SDS011;13431;51.352;6.412;2022-09-09T07:37:02;4.22;;;1.73;;
25535;SDS011;13431;51.352;6.412;2022-09-09T07:39:31;3.60;;;1.52;;
25535;SDS011;13431;51.352;6.412;2022-09-09T07:41:58;3.53;;;2.05;;
25535;SDS011;13431;51.352;6.412;2022-09-09T07:44:26;12.57;;;1.75;;
25535;SDS011;13431;51.352;6.412;2022-09-09T07:47:08;4.63;;;2.13;;
25535;SDS011;13431;51.352;6.412;2022-09-09T07:49:39;4.15;;;1.88;;
25535;SDS011;13431;51.352;6.412;2022-09-09T07:52:08;3.47;;;1.48;;
25535;SDS011;13431;51.352;6.412;2022-09-09T07:54:38;5.78;;;1.80;;
25535;SDS011;13431;51.352;6.412;2022-09-09T07:57:06;4.32;;;1.85;;
25535;SDS011;13431;51.352;6.412;2022-09-09T07:59:36;8.02;;;2.58;;
25535;SDS011;13431;51.352;6.412;2022-09-09T08:02:04;7.85;;;2.15;;
25535;SDS011;13431;51.352;6.412;2022-09-09T08:04:34;6.22;;;1.70;;
25535;SDS011;13431;51.352;6.412;2022-09-09T08:07:02;5.10;;;2.13;;
25535;SDS011;13431;51.352;6.412;2022-09-09T08:09:36;6.22;;;2.38;;
25535;SDS011;13431;51.352;6.412;2022-09-09T08:12:14;5.00;;;2.25;;
25535;SDS011;13431;51.352;6.412;2022-09-09T08:14:43;5.05;;;1.80;;
25535;SDS011;13431;51.352;6.412;2022-09-09T08:17:10;4.97;;;1.85;;
25535;SDS011;13431;51.352;6.412;2022-09-09T08:19:38;5.13;;;2.00;;
25535;SDS011;13431;51.352;6.412;2022-09-09T08:22:10;5.60;;;2.05;;
25535;SDS011;13431;51.352;6.412;2022-09-09T08:24:39;5.47;;;1.60;;
25535;SDS011;13431;51.352;6.412;2022-09-09T08:27:08;4.60;;;1.85;;
25535;SDS011;13431;51.352;6.412;2022-09-09T08:29:37;4.95;;;1.95;;
25535;SDS011;13431;51.352;6.412;2022-09-09T08:32:05;6.72;;;1.67;;
25535;SDS011;13431;51.352;6.412;2022-09-09T08:34:33;4.95;;;1.92;;
25535;SDS011;13431;51.352;6.412;2022-09-09T08:37:05;2.95;;;1.63;;
25535;SDS011;13431;51.352;6.412;2022-09-09T08:39:37;5.78;;;2.20;;
25535;SDS011;13431;51.352;6.412;2022-09-09T08:42:17;4.43;;;2.15;;
25535;SDS011;13431;51.352;6.412;2022-09-09T08:47:44;8.10;;;1.67;;
25535;SDS011;13431;51.352;6.412;2022-09-09T08:50:35;7.25;;;2.05;;
25535;SDS011;13431;51.352;6.412;2022-09-09T08:55:53;3.85;;;1.67;;
25535;SDS011;13431;51.352;6.412;2022-09-09T08:58:58;4.18;;;1.90;;
25535;SDS011;13431;51.352;6.412;2022-09-09T09:04:07;4.97;;;2.05;;
25535;SDS011;13431;51.352;6.412;2022-09-09T09:07:23;3.65;;;1.38;;
25535;SDS011;13431;51.352;6.412;2022-09-09T09:12:52;4.80;;;1.73;;
25535;SDS011;13431;51.352;6.412;2022-09-09T09:15:26;3.28;;;1.80;;
25535;SDS011;13431;51.352;6.412;2022-09-09T09:17:58;2.47;;;1.38;;
25535;SDS011;13431;51.352;6.412;2022-09-09T09:20:33;4.88;;;1.70;;
25535;SDS011;13431;51.352;6.412;2022-09-09T09:23:12;8.95;;;1.65;;
25535;SDS011;13431;51.352;6.412;2022-09-09T09:25:47;3.03;;;1.45;;
25535;SDS011;13431;51.352;6.412;2022-09-09T09:28:17;4.55;;;1.60;;
25535;SDS011;13431;51.352;6.412;2022-09-09T09:30:55;5.05;;;2.13;;
25535;SDS011;13431;51.352;6.412;2022-09-09T09:33:41;4.35;;;1.60;;
25535;SDS011;13431;51.352;6.412;2022-09-09T09:36:24;4.65;;;1.60;;
25535;SDS011;13431;51.352;6.412;2022-09-09T09:39:02;4.22;;;1.60;;
25535;SDS011;13431;51.352;6.412;2022-09-09T09:41:52;4.18;;;1.67;;
25535;SDS011;13431;51.352;6.412;2022-09-09T09:47:17;3.05;;;1.67;;
25535;SDS011;13431;51.352;6.412;2022-09-09T09:49:55;4.18;;;1.55;;
25535;SDS011;13431;51.352;6.412;2022-09-09T09:52:29;3.50;;;1.45;;
25535;SDS011;13431;51.352;6.412;2022-09-09T09:54:59;4.15;;;1.42;;
25535;SDS011;13431;51.352;6.412;2022-09-09T09:57:34;4.25;;;1.42;;
25535;SDS011;13431;51.352;6.412;2022-09-09T10:03:22;5.95;;;1.90;;
25535;SDS011;13431;51.352;6.412;2022-09-09T10:05:53;5.25;;;1.60;;
25535;SDS011;13431;51.352;6.412;2022-09-09T10:08:21;2.65;;;1.30;;
25535;SDS011;13431;51.352;6.412;2022-09-09T10:10:52;4.95;;;1.35;;
25535;SDS011;13431;51.352;6.412;2022-09-09T10:22:13;4.90;;;1.30;;
25535;SDS011;13431;51.352;6.412;2022-09-09T10:25:05;3.67;;;1.23;;
25535;SDS011;13431;51.352;6.412;2022-09-09T10:31:49;4.57;;;2.20;;
25535;SDS011;13431;51.352;6.412;2022-09-09T10:36:48;3.63;;;1.67;;
25535;SDS011;13431;51.352;6.412;2022-09-09T10:42:09;3.45;;;1.75;;
25535;SDS011;13431;51.352;6.412;2022-09-09T10:56:18;5.30;;;1.60;;
25535;SDS011;13431;51.352;6.412;2022-09-09T10:58:49;4.05;;;1.13;;
25535;SDS011;13431;51.352;6.412;2022-09-09T11:01:29;4.85;;;1.15;;
25535;SDS011;13431;51.352;6.412;2022-09-09T11:04:10;4.93;;;1.17;;
25535;SDS011;13431;51.352;6.412;2022-09-09T11:06:56;4.43;;;1.67;;
25535;SDS011;13431;51.352;6.412;2022-09-09T11:09:25;2.50;;;1.33;;
25535;SDS011;13431;51.352;6.412;2022-09-09T11:11:58;8.50;;;2.93;;
25535;SDS011;13431;51.352;6.412;2022-09-09T11:14:40;3.13;;;1.40;;
25535;SDS011;13431;51.352;6.412;2022-09-09T11:17:36;3.63;;;1.30;;
25535;SDS011;13431;51.352;6.412;2022-09-09T11:20:12;3.13;;;1.00;;
25535;SDS011;13431;51.352;6.412;2022-09-09T11:25:29;4.50;;;1.55;;
25535;SDS011;13431;51.352;6.412;2022-09-09T11:33:56;4.47;;;1.67;;
25535;SDS011;13431;51.352;6.412;2022-09-09T11:44:39;4.30;;;1.20;;
25535;SDS011;13431;51.352;6.412;2022-09-09T11:50:22;3.17;;;1.08;;
25535;SDS011;13431;51.352;6.412;2022-09-09T11:53:04;2.08;;;0.90;;
25535;SDS011;13431;51.352;6.412;2022-09-09T11:55:43;3.28;;;1.15;;
25535;SDS011;13431;51.352;6.412;2022-09-09T12:00:41;2.65;;;1.20;;
25535;SDS011;13431;51.352;6.412;2022-09-09T12:05:59;4.00;;;1.25;;
25535;SDS011;13431;51.352;6.412;2022-09-09T12:08:36;1.08;;;0.93;;
25535;SDS011;13431;51.352;6.412;2022-09-09T12:11:04;3.60;;;1.20;;
25535;SDS011;13431;51.352;6.412;2022-09-09T12:13:32;3.72;;;1.30;;
25535;SDS011;13431;51.352;6.412;2022-09-09T12:16:00;3.30;;;1.45;;
25535;SDS011;13431;51.352;6.412;2022-09-09T12:18:33;5.18;;;1.77;;
25535;SDS011;13431;51.352;6.412;2022-09-09T12:24:11;3.25;;;1.40;;
25535;SDS011;13431;51.352;6.412;2022-09-09T12:26:47;2.08;;;1.23;;
25535;SDS011;13431;51.352;6.412;2022-09-09T12:29:26;4.35;;;1.70;;
25535;SDS011;13431;51.352;6.412;2022-09-09T12:31:58;2.08;;;1.40;;
25535;SDS011;13431;51.352;6.412;2022-09-09T12:34:34;4.13;;;1.48;;
25535;SDS011;13431;51.352;6.412;2022-09-09T12:39:58;3.22;;;1.30;;
25535;SDS011;13431;51.352;6.412;2022-09-09T12:42:29;5.32;;;1.75;;
25535;SDS011;13431;51.352;6.412;2022-09-09T12:44:57;3.38;;;1.50;;
25535;SDS011;13431;51.352;6.412;2022-09-09T12:47:40;1.95;;;1.17;;
25535;SDS011;13431;51.352;6.412;2022-09-09T12:50:33;5.40;;;1.75;;
25535;SDS011;13431;51.352;6.412;2022-09-09T12:53:08;5.50;;;1.85;;
25535;SDS011;13431;51.352;6.412;2022-09-09T12:55:49;4.78;;;1.55;;
25535;SDS011;13431;51.352;6.412;2022-09-09T12:58:18;3.95;;;1.33;;
25535;SDS011;13431;51.352;6.412;2022-09-09T13:00:51;3.05;;;1.40;;
25535;SDS011;13431;51.352;6.412;2022-09-09T13:03:23;5.90;;;1.83;;
25535;SDS011;13431;51.352;6.412;2022-09-09T13:05:51;2.85;;;1.10;;
25535;SDS011;13431;51.352;6.412;2022-09-09T13:08:20;3.92;;;1.60;;
25535;SDS011;13431;51.352;6.412;2022-09-09T13:11:01;6.70;;;1.70;;
25535;SDS011;13431;51.352;6.412;2022-09-09T13:13:40;3.45;;;1.35;;
25535;SDS011;13431;51.352;6.412;2022-09-09T13:16:22;5.63;;;1.67;;
25535;SDS011;13431;51.352;6.412;2022-09-09T13:19:09;3.95;;;1.50;;
25535;SDS011;13431;51.352;6.412;2022-09-09T13:21:41;3.92;;;1.33;;
25535;SDS011;13431;51.352;6.412;2022-09-09T13:26:54;3.50;;;1.33;;
25535;SDS011;13431;51.352;6.412;2022-09-09T13:29:23;1.98;;;1.02;;
25535;SDS011;13431;51.352;6.412;2022-09-09T13:31:50;3.33;;;1.45;;
25535;SDS011;13431;51.352;6.412;2022-09-09T13:34:29;2.97;;;1.55;;
25535;SDS011;13431;51.352;6.412;2022-09-09T13:36:59;4.32;;;1.60;;
25535;SDS011;13431;51.352;6.412;2022-09-09T13:39:29;3.42;;;1.23;;
25535;SDS011;13431;51.352;6.412;2022-09-09T13:41:56;3.05;;;1.02;;
25535;SDS011;13431;51.352;6.412;2022-09-09T13:44:29;2.53;;;1.30;;
25535;SDS011;13431;51.352;6.412;2022-09-09T13:49:43;3.88;;;1.38;;
25535;SDS011;13431;51.352;6.412;2022-09-09T13:54:49;3.20;;;1.33;;
25535;SDS011;13431;51.352;6.412;2022-09-09T13:57:19;4.50;;;1.33;;
25535;SDS011;13431;51.352;6.412;2022-09-09T13:59:49;2.72;;;0.98;;
25535;SDS011;13431;51.352;6.412;2022-09-09T14:02:32;3.92;;;1.63;;
25535;SDS011;13431;51.352;6.412;2022-09-09T14:05:00;2.67;;;1.75;;
25535;SDS011;13431;51.352;6.412;2022-09-09T14:07:28;2.10;;;1.25;;
25535;SDS011;13431;51.352;6.412;2022-09-09T14:09:55;1.98;;;0.80;;
25535;SDS011;13431;51.352;6.412;2022-09-09T14:12:22;1.88;;;0.60;;
25535;SDS011;13431;51.352;6.412;2022-09-09T14:14:50;1.38;;;0.95;;
25535;SDS011;13431;51.352;6.412;2022-09-09T14:17:18;4.22;;;0.77;;
25535;SDS011;13431;51.352;6.412;2022-09-09T14:19:45;1.90;;;0.70;;
25535;SDS011;13431;51.352;6.412;2022-09-09T14:22:12;3.28;;;0.90;;
25535;SDS011;13431;51.352;6.412;2022-09-09T14:24:40;1.65;;;0.95;;
25535;SDS011;13431;51.352;6.412;2022-09-09T14:27:08;1.27;;;0.82;;
25535;SDS011;13431;51.352;6.412;2022-09-09T14:29:35;1.65;;;1.08;;
25535;SDS011;13431;51.352;6.412;2022-09-09T14:32:02;2.55;;;1.02;;
25535;SDS011;13431;51.352;6.412;2022-09-09T14:34:30;3.78;;;1.52;;
25535;SDS011;13431;51.352;6.412;2022-09-09T14:36:59;1.45;;;0.80;;
25535;SDS011;13431;51.352;6.412;2022-09-09T14:39:26;4.75;;;1.33;;
25535;SDS011;13431;51.352;6.412;2022-09-09T14:41:53;1.75;;;1.10;;
25535;SDS011;13431;51.352;6.412;2022-09-09T14:44:21;1.50;;;0.90;;
25535;SDS011;13431;51.352;6.412;2022-09-09T14:46:48;1.20;;;1.00;;
25535;SDS011;13431;51.352;6.412;2022-09-09T14:49:16;1.80;;;0.90;;
25535;SDS011;13431;51.352;6.412;2022-09-09T14:51:44;5.93;;;1.10;;
25535;SDS011;13431;51.352;6.412;2022-09-09T14:54:11;2.50;;;1.00;;
25535;SDS011;13431;51.352;6.412;2022-09-09T14:56:38;2.35;;;1.30;;
25535;SDS011;13431;51.352;6.412;2022-09-09T14:59:06;2.97;;;0.82;;
25535;SDS011;13431;51.352;6.412;2022-09-09T15:01:33;2.25;;;1.10;;
25535;SDS011;13431;51.352;6.412;2022-09-09T15:04:02;1.83;;;1.00;;
25535;SDS011;13431;51.352;6.412;2022-09-09T15:06:33;2.30;;;1.10;;
25535;SDS011;13431;51.352;6.412;2022-09-09T15:09:02;1.17;;;1.08;;
25535;SDS011;13431;51.352;6.412;2022-09-09T15:11:30;2.60;;;1.30;;
25535;SDS011;13431;51.352;6.412;2022-09-09T15:14:04;1.48;;;1.08;;
25535;SDS011;13431;51.352;6.412;2022-09-09T15:16:33;2.40;;;1.60;;
25535;SDS011;13431;51.352;6.412;2022-09-09T15:19:01;3.05;;;1.63;;
25535;SDS011;13431;51.352;6.412;2022-09-09T15:21:30;2.53;;;1.15;;
25535;SDS011;13431;51.352;6.412;2022-09-09T15:24:00;1.80;;;1.30;;
25535;SDS011;13431;51.352;6.412;2022-09-09T15:26:27;4.65;;;1.30;;
25535;SDS011;13431;51.352;6.412;2022-09-09T15:28:56;1.40;;;1.20;;
25535;SDS011;13431;51.352;6.412;2022-09-09T15:31:27;2.25;;;1.30;;
25535;SDS011;13431;51.352;6.412;2022-09-09T15:33:57;2.20;;;1.25;;
25535;SDS011;13431;51.352;6.412;2022-09-09T15:36:31;2.30;;;1.00;;
25535;SDS011;13431;51.352;6.412;2022-09-09T15:38:59;3.45;;;1.80;;
25535;SDS011;13431;51.352;6.412;2022-09-09T15:41:28;5.65;;;1.10;;
25535;SDS011;13431;51.352;6.412;2022-09-09T15:43:56;1.55;;;1.10;;
25535;SDS011;13431;51.352;6.412;2022-09-09T15:46:28;2.38;;;1.45;;
25535;SDS011;13431;51.352;6.412;2022-09-09T15:51:55;1.38;;;1.10;;
25535;SDS011;13431;51.352;6.412;2022-09-09T15:54:34;2.70;;;1.27;;
25535;SDS011;13431;51.352;6.412;2022-09-09T15:57:06;4.68;;;1.42;;
25535;SDS011;13431;51.352;6.412;2022-09-09T15:59:35;2.05;;;1.20;;
25535;SDS011;13431;51.352;6.412;2022-09-09T16:02:02;1.58;;;1.17;;
25535;SDS011;13431;51.352;6.412;2022-09-09T16:04:32;2.72;;;1.38;;
25535;SDS011;13431;51.352;6.412;2022-09-09T16:07:03;3.50;;;1.83;;
25535;SDS011;13431;51.352;6.412;2022-09-09T16:09:32;1.67;;;1.58;;
25535;SDS011;13431;51.352;6.412;2022-09-09T16:12:00;2.08;;;1.45;;
25535;SDS011;13431;51.352;6.412;2022-09-09T16:14:29;3.58;;;1.65;;
25535;SDS011;13431;51.352;6.412;2022-09-09T16:17:01;5.45;;;1.52;;
25535;SDS011;13431;51.352;6.412;2022-09-09T16:19:29;3.22;;;1.40;;
25535;SDS011;13431;51.352;6.412;2022-09-09T16:21:57;2.40;;;1.50;;
25535;SDS011;13431;51.352;6.412;2022-09-09T16:24:24;3.92;;;1.65;;
25535;SDS011;13431;51.352;6.412;2022-09-09T16:26:53;6.30;;;2.00;;
25535;SDS011;13431;51.352;6.412;2022-09-09T16:29:21;3.97;;;1.95;;
25535;SDS011;13431;51.352;6.412;2022-09-09T16:31:49;4.03;;;1.50;;
25535;SDS011;13431;51.352;6.412;2022-09-09T16:34:18;4.38;;;1.63;;
25535;SDS011;13431;51.352;6.412;2022-09-09T16:36:46;1.70;;;1.60;;
25535;SDS011;13431;51.352;6.412;2022-09-09T16:39:15;5.00;;;1.85;;
25535;SDS011;13431;51.352;6.412;2022-09-09T16:41:45;4.32;;;1.45;;
25535;SDS011;13431;51.352;6.412;2022-09-09T16:44:14;2.28;;;1.33;;
25535;SDS011;13431;51.352;6.412;2022-09-09T16:46:45;4.80;;;1.98;;
25535;SDS011;13431;51.352;6.412;2022-09-09T16:49:15;2.65;;;1.50;;
25535;SDS011;13431;51.352;6.412;2022-09-09T16:51:47;5.97;;;1.75;;
25535;SDS011;13431;51.352;6.412;2022-09-09T16:54:16;4.05;;;1.80;;
25535;SDS011;13431;51.352;6.412;2022-09-09T16:56:44;1.92;;;1.50;;
25535;SDS011;13431;51.352;6.412;2022-09-09T16:59:14;2.83;;;1.50;;
25535;SDS011;13431;51.352;6.412;2022-09-09T17:01:43;7.82;;;1.75;;
25535;SDS011;13431;51.352;6.412;2022-09-09T17:04:13;3.00;;;1.27;;
25535;SDS011;13431;51.352;6.412;2022-09-09T17:06:51;4.75;;;1.80;;
25535;SDS011;13431;51.352;6.412;2022-09-09T17:09:20;3.08;;;1.80;;
25535;SDS011;13431;51.352;6.412;2022-09-09T17:11:49;6.47;;;1.55;;
25535;SDS011;13431;51.352;6.412;2022-09-09T17:14:19;1.60;;;1.10;;
25535;SDS011;13431;51.352;6.412;2022-09-09T17:16:47;2.40;;;1.40;;
25535;SDS011;13431;51.352;6.412;2022-09-09T17:19:15;4.70;;;1.50;;
25535;SDS011;13431;51.352;6.412;2022-09-09T17:21:43;2.10;;;1.58;;
25535;SDS011;13431;51.352;6.412;2022-09-09T17:24:31;3.65;;;1.98;;
25535;SDS011;13431;51.352;6.412;2022-09-09T17:27:00;2.25;;;1.63;;
25535;SDS011;13431;51.352;6.412;2022-09-09T17:29:28;4.95;;;1.98;;